createdAt,value
2022-08-27T00:00:10.191Z,487.00
2022-08-27T00:00:40.226Z,488.00
2022-08-27T00:01:12.003Z,489.00
2022-08-27T00:01:40.302Z,486.00
2022-08-27T00:02:10.422Z,486.00
2022-08-27T00:02:40.357Z,485.00
2022-08-27T00:03:10.395Z,483.00
2022-08-27T00:03:40.432Z,482.00
2022-08-27T00:04:10.494Z,483.00
2022-08-27T00:04:40.605Z,484.00
2022-08-27T00:05:10.622Z,484.00
2022-08-27T00:05:40.654Z,484.00
2022-08-27T00:06:10.685Z,485.00
2022-08-27T00:06:40.718Z,484.00
2022-08-27T00:07:10.794Z,485.00
2022-08-27T00:07:40.824Z,482.00
2022-08-27T00:08:11.104Z,482.00
2022-08-27T00:08:40.919Z,481.00
2022-08-27T00:09:10.946Z,482.00
2022-08-27T00:09:40.975Z,483.00
2022-08-27T00:10:11.015Z,484.00
2022-08-27T00:10:41.051Z,486.00
2022-08-27T00:11:11.084Z,486.00
2022-08-27T00:11:41.116Z,485.00
2022-08-27T00:12:11.178Z,486.00
2022-08-27T00:12:41.206Z,486.00
2022-08-27T00:13:11.245Z,486.00
2022-08-27T00:13:41.276Z,487.00
2022-08-27T00:14:11.306Z,488.00
2022-08-27T00:14:41.305Z,487.00
2022-08-27T00:15:11.300Z,484.00
2022-08-27T00:15:41.316Z,486.00
2022-08-27T00:16:11.379Z,485.00
2022-08-27T00:16:41.434Z,486.00
2022-08-27T00:17:11.444Z,487.00
2022-08-27T00:17:41.442Z,487.00
2022-08-27T00:18:11.651Z,488.00
2022-08-27T00:18:41.455Z,485.00
2022-08-27T00:19:11.575Z,484.00
2022-08-27T00:19:41.576Z,484.00
2022-08-27T00:20:11.585Z,482.00
2022-08-27T00:20:41.570Z,481.00
2022-08-27T00:21:11.565Z,482.00
2022-08-27T00:21:41.565Z,481.00
2022-08-27T00:22:11.568Z,479.00
2022-08-27T00:22:41.567Z,480.00
2022-08-27T00:23:11.555Z,479.00
2022-08-27T00:23:41.558Z,478.00
2022-08-27T00:24:11.549Z,477.00
2022-08-27T00:24:46.409Z,475.00
2022-08-27T00:25:11.636Z,475.00
2022-08-27T00:25:41.669Z,475.00
2022-08-27T00:26:11.698Z,476.00
2022-08-27T00:26:43.433Z,478.00
2022-08-27T00:27:11.782Z,478.00
2022-08-27T00:27:41.828Z,479.00
2022-08-27T00:28:12.001Z,478.00
2022-08-27T00:28:41.968Z,476.00
2022-08-27T00:29:11.994Z,477.00
2022-08-27T00:29:42.033Z,477.00
2022-08-27T00:30:12.071Z,479.00
2022-08-27T00:30:42.104Z,479.00
2022-08-27T00:31:12.707Z,477.00
2022-08-27T00:31:42.344Z,477.00
2022-08-27T00:32:12.398Z,475.00
2022-08-27T00:32:42.404Z,474.00
2022-08-27T00:33:12.442Z,476.00
2022-08-27T00:33:42.473Z,475.00
2022-08-27T00:34:12.936Z,476.00
2022-08-27T00:34:42.514Z,477.00
2022-08-27T00:35:12.560Z,477.00
2022-08-27T00:35:42.600Z,478.00
2022-08-27T00:36:12.636Z,478.00
2022-08-27T00:36:42.672Z,478.00
2022-08-27T00:37:12.712Z,479.00
2022-08-27T00:37:42.746Z,479.00
2022-08-27T00:38:12.781Z,479.00
2022-08-27T00:38:42.810Z,479.00
2022-08-27T00:39:12.844Z,478.00
2022-08-27T00:39:42.881Z,478.00
2022-08-27T00:40:12.953Z,478.00
2022-08-27T00:40:42.996Z,478.00
2022-08-27T00:41:13.046Z,481.00
2022-08-27T00:41:43.093Z,482.00
2022-08-27T00:42:13.132Z,482.00
2022-08-27T00:42:43.166Z,484.00
2022-08-27T00:43:13.203Z,484.00
2022-08-27T00:43:43.237Z,485.00
2022-08-27T00:44:13.273Z,483.00
2022-08-27T00:44:43.312Z,483.00
2022-08-27T00:45:13.357Z,483.00
2022-08-27T00:45:43.448Z,481.00
2022-08-27T00:46:13.574Z,482.00
2022-08-27T00:46:43.617Z,481.00
2022-08-27T00:47:13.652Z,482.00
2022-08-27T00:47:43.685Z,481.00
2022-08-27T00:48:13.717Z,479.00
2022-08-27T00:48:43.758Z,479.00
2022-08-27T00:49:13.795Z,478.00
2022-08-27T00:49:43.824Z,479.00
2022-08-27T00:50:13.860Z,480.00
2022-08-27T00:50:43.896Z,480.00
2022-08-27T00:51:13.927Z,479.00
2022-08-27T00:51:43.969Z,480.00
2022-08-27T00:52:13.960Z,480.00
2022-08-27T00:52:43.990Z,478.00
2022-08-27T00:53:14.030Z,477.00
2022-08-27T00:53:44.065Z,477.00
2022-08-27T00:54:18.759Z,475.00
2022-08-27T00:54:44.213Z,477.00
2022-08-27T00:55:14.252Z,476.00
2022-08-27T00:55:44.286Z,476.00
2022-08-27T00:56:14.335Z,475.00
2022-08-27T00:56:44.447Z,476.00
2022-08-27T00:57:14.494Z,476.00
2022-08-27T00:57:44.524Z,475.00
2022-08-27T00:58:14.570Z,475.00
2022-08-27T00:58:44.601Z,473.00
2022-08-27T00:59:14.636Z,473.00
2022-08-27T00:59:44.679Z,473.00
2022-08-27T01:00:14.717Z,473.00
2022-08-27T01:00:44.786Z,473.00
2022-08-27T01:01:14.911Z,474.00
2022-08-27T01:01:44.965Z,474.00
2022-08-27T01:02:15.015Z,474.00
2022-08-27T01:02:45.028Z,474.00
2022-08-27T01:03:15.053Z,474.00
2022-08-27T01:03:45.084Z,474.00
2022-08-27T01:04:15.114Z,474.00
2022-08-27T01:04:45.151Z,473.00
2022-08-27T01:05:15.180Z,472.00
2022-08-27T01:05:45.220Z,473.00
2022-08-27T01:06:16.094Z,472.00
2022-08-27T01:06:45.321Z,472.00
2022-08-27T01:07:15.350Z,471.00
2022-08-27T01:07:45.384Z,471.00
2022-08-27T01:08:15.422Z,471.00
2022-08-27T01:08:45.458Z,472.00
2022-08-27T01:09:15.496Z,474.00
2022-08-27T01:09:45.535Z,475.00
2022-08-27T01:10:15.561Z,477.00
2022-08-27T01:10:45.602Z,476.00
2022-08-27T01:11:15.641Z,476.00
2022-08-27T01:11:45.676Z,474.00
2022-08-27T01:12:15.709Z,476.00
2022-08-27T01:12:45.762Z,476.00
2022-08-27T01:13:15.795Z,474.00
2022-08-27T01:14:00.209Z,475.00
2022-08-27T01:14:15.879Z,476.00
2022-08-27T01:14:46.009Z,476.00
2022-08-27T01:15:19.944Z,478.00
2022-08-27T01:15:46.055Z,476.00
2022-08-27T01:16:16.137Z,476.00
2022-08-27T01:16:46.214Z,476.00
2022-08-27T01:17:16.207Z,474.00
2022-08-27T01:17:46.206Z,474.00
2022-08-27T01:18:16.279Z,474.00
2022-08-27T01:18:46.238Z,474.00
2022-08-27T01:19:16.358Z,474.00
2022-08-27T01:19:46.358Z,473.00
2022-08-27T01:20:16.352Z,472.00
2022-08-27T01:20:46.473Z,472.00
2022-08-27T01:21:16.614Z,471.00
2022-08-27T01:21:46.619Z,470.00
2022-08-27T01:22:21.750Z,470.00
2022-08-27T01:22:46.630Z,469.00
2022-08-27T01:23:16.626Z,469.00
2022-08-27T01:23:46.623Z,469.00
2022-08-27T01:24:16.621Z,468.00
2022-08-27T01:24:46.659Z,468.00
2022-08-27T01:25:16.678Z,470.00
2022-08-27T01:25:46.710Z,469.00
2022-08-27T01:26:16.761Z,468.00
2022-08-27T01:26:46.799Z,470.00
2022-08-27T01:27:16.832Z,471.00
2022-08-27T01:27:46.865Z,472.00
2022-08-27T01:28:16.904Z,473.00
2022-08-27T01:28:46.957Z,473.00
2022-08-27T01:29:16.985Z,474.00
2022-08-27T01:29:47.029Z,475.00
2022-08-27T01:30:17.061Z,474.00
2022-08-27T01:30:47.090Z,474.00
2022-08-27T01:31:17.175Z,474.00
2022-08-27T01:31:47.163Z,475.00
2022-08-27T01:32:17.184Z,474.00
2022-08-27T01:32:47.212Z,472.00
2022-08-27T01:33:17.281Z,471.00
2022-08-27T01:33:47.282Z,471.00
2022-08-27T01:34:17.310Z,470.00
2022-08-27T01:34:47.352Z,470.00
2022-08-27T01:35:17.389Z,471.00
2022-08-27T01:35:47.426Z,471.00
2022-08-27T01:36:17.470Z,474.00
2022-08-27T01:36:47.515Z,472.00
2022-08-27T01:37:17.546Z,471.00
2022-08-27T01:37:47.799Z,472.00
2022-08-27T01:38:21.630Z,473.00
2022-08-27T01:38:47.726Z,474.00
2022-08-27T01:39:17.728Z,474.00
2022-08-27T01:39:47.765Z,474.00
2022-08-27T01:40:17.846Z,473.00
2022-08-27T01:40:47.922Z,473.00
2022-08-27T01:41:17.965Z,473.00
2022-08-27T01:41:48.049Z,472.00
2022-08-27T01:42:18.113Z,472.00
2022-08-27T01:42:48.143Z,472.00
2022-08-27T01:43:18.179Z,471.00
2022-08-27T01:43:48.209Z,471.00
2022-08-27T01:44:20.834Z,472.00
2022-08-27T01:44:48.266Z,473.00
2022-08-27T01:45:18.306Z,474.00
2022-08-27T01:45:48.350Z,474.00
2022-08-27T01:46:18.421Z,476.00
2022-08-27T01:46:48.483Z,477.00
2022-08-27T01:47:18.538Z,477.00
2022-08-27T01:47:48.583Z,476.00
2022-08-27T01:48:18.611Z,477.00
2022-08-27T01:48:48.641Z,477.00
2022-08-27T01:49:18.679Z,476.00
2022-08-27T01:49:48.710Z,477.00
2022-08-27T01:50:18.753Z,477.00
2022-08-27T01:50:48.787Z,477.00
2022-08-27T01:51:18.822Z,480.00
2022-08-27T01:51:48.857Z,479.00
2022-08-27T01:52:18.888Z,479.00
2022-08-27T01:52:48.938Z,479.00
2022-08-27T01:53:18.970Z,477.00
2022-08-27T01:53:49.021Z,476.00
2022-08-27T01:54:19.057Z,476.00
2022-08-27T01:54:49.091Z,477.00
2022-08-27T01:55:19.125Z,477.00
2022-08-27T01:55:49.181Z,477.00
2022-08-27T01:56:19.212Z,478.00
2022-08-27T01:56:49.244Z,479.00
2022-08-27T01:57:21.964Z,479.00
2022-08-27T01:57:49.312Z,479.00
2022-08-27T01:58:19.342Z,476.00
2022-08-27T01:58:49.377Z,475.00
2022-08-27T01:59:19.415Z,474.00
2022-08-27T01:59:49.453Z,472.00
2022-08-27T02:00:19.482Z,473.00
2022-08-27T02:00:51.992Z,472.00
2022-08-27T02:01:19.853Z,471.00
2022-08-27T02:01:49.667Z,472.00
2022-08-27T02:02:19.778Z,474.00
2022-08-27T02:02:49.814Z,475.00
2022-08-27T02:03:19.852Z,476.00
2022-08-27T02:03:49.885Z,476.00
2022-08-27T02:04:19.920Z,476.00
2022-08-27T02:04:49.952Z,477.00
2022-08-27T02:05:19.983Z,475.00
2022-08-27T02:05:50.046Z,475.00
2022-08-27T02:06:20.060Z,476.00
2022-08-27T02:06:50.093Z,476.00
2022-08-27T02:07:20.124Z,476.00
2022-08-27T02:07:50.162Z,476.00
2022-08-27T02:08:20.194Z,476.00
2022-08-27T02:08:50.229Z,476.00
2022-08-27T02:09:20.264Z,478.00
2022-08-27T02:09:50.297Z,479.00
2022-08-27T02:10:20.331Z,478.00
2022-08-27T02:10:50.370Z,476.00
2022-08-27T02:11:20.401Z,475.00
2022-08-27T02:11:50.441Z,475.00
2022-08-27T02:12:20.475Z,476.00
2022-08-27T02:12:50.506Z,476.00
2022-08-27T02:13:20.546Z,477.00
2022-08-27T02:13:50.574Z,478.00
2022-08-27T02:14:20.593Z,475.00
2022-08-27T02:14:50.594Z,477.00
2022-08-27T02:15:20.594Z,478.00
2022-08-27T02:15:50.774Z,479.00
2022-08-27T02:16:20.778Z,479.00
2022-08-27T02:16:52.660Z,480.00
2022-08-27T02:17:20.764Z,479.00
2022-08-27T02:17:50.763Z,477.00
2022-08-27T02:18:20.762Z,479.00
2022-08-27T02:18:50.877Z,479.00
2022-08-27T02:19:20.885Z,477.00
2022-08-27T02:19:50.971Z,477.00
2022-08-27T02:20:20.969Z,477.00
2022-08-27T02:20:51.096Z,477.00
2022-08-27T02:21:21.096Z,477.00
2022-08-27T02:21:51.094Z,478.00
2022-08-27T02:22:21.098Z,479.00
2022-08-27T02:22:51.098Z,480.00
2022-08-27T02:23:21.099Z,480.00
2022-08-27T02:23:51.104Z,480.00
2022-08-27T02:24:21.113Z,481.00
2022-08-27T02:24:51.150Z,482.00
2022-08-27T02:25:21.191Z,482.00
2022-08-27T02:25:51.227Z,483.00
2022-08-27T02:26:21.255Z,481.00
2022-08-27T02:26:51.290Z,480.00
2022-08-27T02:27:21.323Z,479.00
2022-08-27T02:27:51.357Z,479.00
2022-08-27T02:28:21.392Z,481.00
2022-08-27T02:28:51.426Z,480.00
2022-08-27T02:29:21.461Z,480.00
2022-08-27T02:29:51.502Z,479.00
2022-08-27T02:30:21.549Z,477.00
2022-08-27T02:30:51.577Z,477.00
2022-08-27T02:31:21.672Z,477.00
2022-08-27T02:31:51.715Z,478.00
2022-08-27T02:32:31.131Z,477.00
2022-08-27T02:32:51.804Z,476.00
2022-08-27T02:33:21.837Z,474.00
2022-08-27T02:33:51.873Z,476.00
2022-08-27T02:34:21.907Z,476.00
2022-08-27T02:34:51.940Z,477.00
2022-08-27T02:35:22.003Z,478.00
2022-08-27T02:35:52.031Z,478.00
2022-08-27T02:36:22.075Z,479.00
2022-08-27T02:36:52.106Z,479.00
2022-08-27T02:37:22.139Z,478.00
2022-08-27T02:37:52.173Z,478.00
2022-08-27T02:38:22.209Z,477.00
2022-08-27T02:38:52.318Z,479.00
2022-08-27T02:39:22.347Z,478.00
2022-08-27T02:39:52.433Z,478.00
2022-08-27T02:40:22.642Z,479.00
2022-08-27T02:40:54.024Z,478.00
2022-08-27T02:41:22.482Z,478.00
2022-08-27T02:41:52.515Z,478.00
2022-08-27T02:42:22.549Z,478.00
2022-08-27T02:42:52.593Z,478.00
2022-08-27T02:43:25.318Z,476.00
2022-08-27T02:43:52.751Z,477.00
2022-08-27T02:44:22.782Z,476.00
2022-08-27T02:44:52.814Z,478.00
2022-08-27T02:45:22.851Z,478.00
2022-08-27T02:45:52.890Z,479.00
2022-08-27T02:46:22.972Z,481.00
2022-08-27T02:46:53.618Z,481.00
2022-08-27T02:47:23.103Z,481.00
2022-08-27T02:47:53.141Z,480.00
2022-08-27T02:48:23.183Z,479.00
2022-08-27T02:48:53.209Z,479.00
2022-08-27T02:49:23.245Z,479.00
2022-08-27T02:49:53.277Z,478.00
2022-08-27T02:50:27.006Z,478.00
2022-08-27T02:50:53.423Z,479.00
2022-08-27T02:51:23.487Z,481.00
2022-08-27T02:51:53.467Z,482.00
2022-08-27T02:52:25.269Z,482.00
2022-08-27T02:52:53.580Z,481.00
2022-08-27T02:53:24.012Z,480.00
2022-08-27T02:53:53.668Z,482.00
2022-08-27T02:54:23.697Z,482.00
2022-08-27T02:54:53.746Z,482.00
2022-08-27T02:55:23.834Z,484.00
2022-08-27T02:55:53.871Z,484.00
2022-08-27T02:56:23.911Z,483.00
2022-08-27T02:56:53.951Z,482.00
2022-08-27T02:57:23.980Z,482.00
2022-08-27T02:57:54.014Z,481.00
2022-08-27T02:58:24.052Z,482.00
2022-08-27T02:58:54.087Z,481.00
2022-08-27T02:59:24.116Z,479.00
2022-08-27T02:59:54.153Z,479.00
2022-08-27T03:00:24.195Z,477.00
2022-08-27T03:00:54.227Z,477.00
2022-08-27T03:01:24.367Z,476.00
2022-08-27T03:01:54.459Z,476.00
2022-08-27T03:02:27.530Z,476.00
2022-08-27T03:02:54.483Z,474.00
2022-08-27T03:03:24.537Z,475.00
2022-08-27T03:03:54.566Z,475.00
2022-08-27T03:04:24.604Z,478.00
2022-08-27T03:04:54.641Z,478.00
2022-08-27T03:05:24.673Z,477.00
2022-08-27T03:05:54.706Z,479.00
2022-08-27T03:06:24.748Z,478.00
2022-08-27T03:06:54.781Z,478.00
2022-08-27T03:07:24.816Z,479.00
2022-08-27T03:07:54.855Z,482.00
2022-08-27T03:08:24.889Z,481.00
2022-08-27T03:08:54.920Z,482.00
2022-08-27T03:09:24.962Z,482.00
2022-08-27T03:09:55.000Z,483.00
2022-08-27T03:10:25.033Z,482.00
2022-08-27T03:10:55.070Z,483.00
2022-08-27T03:11:25.120Z,484.00
2022-08-27T03:11:55.154Z,483.00
2022-08-27T03:12:25.191Z,482.00
2022-08-27T03:12:55.231Z,482.00
2022-08-27T03:13:25.267Z,481.00
2022-08-27T03:13:55.303Z,482.00
2022-08-27T03:14:25.320Z,481.00
2022-08-27T03:14:55.377Z,482.00
2022-08-27T03:15:25.508Z,482.00
2022-08-27T03:15:55.546Z,482.00
2022-08-27T03:16:25.615Z,483.00
2022-08-27T03:16:55.594Z,483.00
2022-08-27T03:17:25.590Z,484.00
2022-08-27T03:17:55.586Z,484.00
2022-08-27T03:18:25.705Z,485.00
2022-08-27T03:18:55.700Z,485.00
2022-08-27T03:19:25.705Z,485.00
2022-08-27T03:19:55.824Z,484.00
2022-08-27T03:20:25.844Z,484.00
2022-08-27T03:20:55.824Z,481.00
2022-08-27T03:21:25.945Z,481.00
2022-08-27T03:21:55.939Z,480.00
2022-08-27T03:22:25.945Z,482.00
2022-08-27T03:22:55.942Z,482.00
2022-08-27T03:23:25.937Z,481.00
2022-08-27T03:23:55.937Z,481.00
2022-08-27T03:24:25.946Z,481.00
2022-08-27T03:24:56.046Z,480.00
2022-08-27T03:25:26.082Z,480.00
2022-08-27T03:25:56.116Z,479.00
2022-08-27T03:26:26.150Z,479.00
2022-08-27T03:26:56.189Z,481.00
2022-08-27T03:27:26.222Z,482.00
2022-08-27T03:27:56.252Z,482.00
2022-08-27T03:28:26.288Z,482.00
2022-08-27T03:28:56.321Z,484.00
2022-08-27T03:29:26.352Z,486.00
2022-08-27T03:29:59.594Z,486.00
2022-08-27T03:30:26.445Z,484.00
2022-08-27T03:30:56.534Z,484.00
2022-08-27T03:31:26.837Z,483.00
2022-08-27T03:31:56.582Z,483.00
2022-08-27T03:32:26.613Z,481.00
2022-08-27T03:32:56.649Z,481.00
2022-08-27T03:33:26.681Z,480.00
2022-08-27T03:33:56.713Z,482.00
2022-08-27T03:34:26.750Z,482.00
2022-08-27T03:34:56.785Z,483.00
2022-08-27T03:35:26.814Z,483.00
2022-08-27T03:35:57.143Z,484.00
2022-08-27T03:36:26.928Z,484.00
2022-08-27T03:36:56.952Z,484.00
2022-08-27T03:37:26.986Z,482.00
2022-08-27T03:37:57.027Z,480.00
2022-08-27T03:38:27.058Z,478.00
2022-08-27T03:38:57.092Z,477.00
2022-08-27T03:39:27.129Z,476.00
2022-08-27T03:39:57.220Z,476.00
2022-08-27T03:40:27.346Z,476.00
2022-08-27T03:40:57.362Z,476.00
2022-08-27T03:41:43.814Z,476.00
2022-08-27T03:41:57.451Z,476.00
2022-08-27T03:42:27.488Z,476.00
2022-08-27T03:42:57.519Z,475.00
2022-08-27T03:43:27.551Z,475.00
2022-08-27T03:43:57.586Z,476.00
2022-08-27T03:44:27.622Z,478.00
2022-08-27T03:44:57.657Z,478.00
2022-08-27T03:45:27.692Z,480.00
2022-08-27T03:46:01.684Z,481.00
2022-08-27T03:46:27.825Z,481.00
2022-08-27T03:46:57.876Z,479.00
2022-08-27T03:47:27.918Z,479.00
2022-08-27T03:47:57.950Z,477.00
2022-08-27T03:48:27.980Z,479.00
2022-08-27T03:48:58.616Z,479.00
2022-08-27T03:49:28.113Z,479.00
2022-08-27T03:49:58.155Z,481.00
2022-08-27T03:50:28.187Z,481.00
2022-08-27T03:50:58.228Z,481.00
2022-08-27T03:51:28.265Z,480.00
2022-08-27T03:51:58.297Z,478.00
2022-08-27T03:52:28.330Z,479.00
2022-08-27T03:52:58.368Z,480.00
2022-08-27T03:53:28.400Z,480.00
2022-08-27T03:53:58.437Z,480.00
2022-08-27T03:54:28.474Z,479.00
2022-08-27T03:54:58.508Z,478.00
2022-08-27T03:55:28.546Z,478.00
2022-08-27T03:55:58.583Z,479.00
2022-08-27T03:56:28.615Z,480.00
2022-08-27T03:56:58.656Z,478.00
2022-08-27T03:57:28.688Z,477.00
2022-08-27T03:57:58.806Z,476.00
2022-08-27T03:58:28.849Z,476.00
2022-08-27T03:58:58.887Z,478.00
2022-08-27T03:59:28.928Z,477.00
2022-08-27T03:59:58.952Z,479.00
2022-08-27T04:00:28.988Z,479.00
2022-08-27T04:00:59.023Z,480.00
2022-08-27T04:01:29.103Z,477.00
2022-08-27T04:01:59.184Z,478.00
2022-08-27T04:02:29.230Z,479.00
2022-08-27T04:02:59.343Z,480.00
2022-08-27T04:03:29.375Z,480.00
2022-08-27T04:03:59.419Z,479.00
2022-08-27T04:04:29.447Z,480.00
2022-08-27T04:04:59.473Z,481.00
2022-08-27T04:05:29.512Z,482.00
2022-08-27T04:05:59.547Z,483.00
2022-08-27T04:06:29.580Z,485.00
2022-08-27T04:06:59.611Z,485.00
2022-08-27T04:07:29.642Z,484.00
2022-08-27T04:07:59.670Z,484.00
2022-08-27T04:08:29.707Z,483.00
2022-08-27T04:08:59.744Z,485.00
2022-08-27T04:09:29.772Z,483.00
2022-08-27T04:09:59.812Z,481.00
2022-08-27T04:10:34.750Z,481.00
2022-08-27T04:10:59.903Z,481.00
2022-08-27T04:11:29.938Z,481.00
2022-08-27T04:11:59.973Z,481.00
2022-08-27T04:12:30.012Z,481.00
2022-08-27T04:13:00.041Z,482.00
2022-08-27T04:13:30.084Z,481.00
2022-08-27T04:14:00.116Z,480.00
2022-08-27T04:14:30.122Z,480.00
2022-08-27T04:15:00.119Z,478.00
2022-08-27T04:15:30.144Z,478.00
2022-08-27T04:16:00.216Z,476.00
2022-08-27T04:16:30.276Z,477.00
2022-08-27T04:17:00.297Z,476.00
2022-08-27T04:17:30.414Z,476.00
2022-08-27T04:18:00.410Z,479.00
2022-08-27T04:18:30.427Z,478.00
2022-08-27T04:19:00.543Z,479.00
2022-08-27T04:19:30.664Z,479.00
2022-08-27T04:20:24.640Z,480.00
2022-08-27T04:20:35.401Z,480.00
2022-08-27T04:21:00.717Z,481.00
2022-08-27T04:21:30.716Z,480.00
2022-08-27T04:22:00.715Z,481.00
2022-08-27T04:22:30.825Z,479.00
2022-08-27T04:23:00.826Z,479.00
2022-08-27T04:23:30.944Z,479.00
2022-08-27T04:24:00.938Z,479.00
2022-08-27T04:24:30.964Z,478.00
2022-08-27T04:25:01.004Z,477.00
2022-08-27T04:25:31.052Z,477.00
2022-08-27T04:26:01.112Z,477.00
2022-08-27T04:26:31.148Z,478.00
2022-08-27T04:27:01.188Z,478.00
2022-08-27T04:27:31.213Z,478.00
2022-08-27T04:28:01.287Z,479.00
2022-08-27T04:28:34.174Z,479.00
2022-08-27T04:29:01.378Z,478.00
2022-08-27T04:29:31.415Z,478.00
2022-08-27T04:30:01.454Z,479.00
2022-08-27T04:30:31.488Z,477.00
2022-08-27T04:31:01.612Z,477.00
2022-08-27T04:31:31.752Z,480.00
2022-08-27T04:32:01.680Z,480.00
2022-08-27T04:32:31.711Z,478.00
2022-08-27T04:33:01.720Z,478.00
2022-08-27T04:33:31.767Z,477.00
2022-08-27T04:34:01.793Z,477.00
2022-08-27T04:34:31.832Z,477.00
2022-08-27T04:35:01.869Z,475.00
2022-08-27T04:35:31.902Z,476.00
2022-08-27T04:36:01.966Z,477.00
2022-08-27T04:36:32.030Z,476.00
2022-08-27T04:37:02.067Z,474.00
2022-08-27T04:37:32.097Z,475.00
2022-08-27T04:38:02.134Z,476.00
2022-08-27T04:38:32.166Z,477.00
2022-08-27T04:39:02.184Z,477.00
2022-08-27T04:39:32.222Z,475.00
2022-08-27T04:40:02.349Z,476.00
2022-08-27T04:40:32.419Z,477.00
2022-08-27T04:41:02.457Z,476.00
2022-08-27T04:41:32.495Z,476.00
2022-08-27T04:42:02.526Z,476.00
2022-08-27T04:42:32.605Z,476.00
2022-08-27T04:43:02.645Z,476.00
2022-08-27T04:43:32.681Z,475.00
2022-08-27T04:44:02.715Z,475.00
2022-08-27T04:44:32.762Z,476.00
2022-08-27T04:45:02.788Z,475.00
2022-08-27T04:45:32.841Z,476.00
2022-08-27T04:46:02.941Z,476.00
2022-08-27T04:46:32.998Z,476.00
2022-08-27T04:47:03.024Z,476.00
2022-08-27T04:47:33.069Z,476.00
2022-08-27T04:48:03.157Z,476.00
2022-08-27T04:48:33.174Z,477.00
2022-08-27T04:49:03.231Z,478.00
2022-08-27T04:49:33.376Z,479.00
2022-08-27T04:50:05.612Z,481.00
2022-08-27T04:50:33.433Z,481.00
2022-08-27T04:51:03.354Z,479.00
2022-08-27T04:51:33.456Z,478.00
2022-08-27T04:52:03.490Z,477.00
2022-08-27T04:52:33.528Z,477.00
2022-08-27T04:53:03.580Z,477.00
2022-08-27T04:53:33.589Z,476.00
2022-08-27T04:54:03.622Z,475.00
2022-08-27T04:54:33.658Z,475.00
2022-08-27T04:55:03.687Z,476.00
2022-08-27T04:55:33.750Z,476.00
2022-08-27T04:56:03.782Z,477.00
2022-08-27T04:56:33.818Z,478.00
2022-08-27T04:57:03.862Z,478.00
2022-08-27T04:57:33.893Z,476.00
2022-08-27T04:58:03.968Z,477.00
2022-08-27T04:58:34.034Z,476.00
2022-08-27T04:59:04.116Z,476.00
2022-08-27T04:59:34.145Z,475.00
2022-08-27T05:00:04.192Z,475.00
2022-08-27T05:00:34.252Z,476.00
2022-08-27T05:01:04.284Z,475.00
2022-08-27T05:01:34.415Z,474.00
2022-08-27T05:02:04.804Z,475.00
2022-08-27T05:02:34.466Z,474.00
2022-08-27T05:03:04.491Z,474.00
2022-08-27T05:03:34.525Z,474.00
2022-08-27T05:04:04.559Z,473.00
2022-08-27T05:04:34.589Z,474.00
2022-08-27T05:05:04.688Z,473.00
2022-08-27T05:05:34.732Z,471.00
2022-08-27T05:06:04.728Z,471.00
2022-08-27T05:06:34.765Z,470.00
2022-08-27T05:07:04.802Z,471.00
2022-08-27T05:07:34.831Z,472.00
2022-08-27T05:08:04.860Z,473.00
2022-08-27T05:08:34.963Z,472.00
2022-08-27T05:09:04.997Z,469.00
2022-08-27T05:09:35.032Z,469.00
2022-08-27T05:10:05.067Z,469.00
2022-08-27T05:10:35.122Z,468.00
2022-08-27T05:11:05.172Z,467.00
2022-08-27T05:11:35.203Z,468.00
2022-08-27T05:12:05.240Z,469.00
2022-08-27T05:12:35.269Z,470.00
2022-08-27T05:13:05.302Z,470.00
2022-08-27T05:13:35.337Z,470.00
2022-08-27T05:14:05.371Z,469.00
2022-08-27T05:14:35.364Z,470.00
2022-08-27T05:15:05.367Z,469.00
2022-08-27T05:15:35.413Z,468.00
2022-08-27T05:16:05.444Z,468.00
2022-08-27T05:16:35.413Z,469.00
2022-08-27T05:17:05.412Z,469.00
2022-08-27T05:17:35.532Z,469.00
2022-08-27T05:18:05.532Z,469.00
2022-08-27T05:18:42.231Z,468.00
2022-08-27T05:19:05.552Z,468.00
2022-08-27T05:19:35.550Z,469.00
2022-08-27T05:20:05.550Z,471.00
2022-08-27T05:20:35.544Z,470.00
2022-08-27T05:21:05.563Z,470.00
2022-08-27T05:21:35.645Z,471.00
2022-08-27T05:22:05.643Z,471.00
2022-08-27T05:22:35.761Z,473.00
2022-08-27T05:23:05.758Z,473.00
2022-08-27T05:23:35.765Z,474.00
2022-08-27T05:24:05.840Z,475.00
2022-08-27T05:24:35.866Z,475.00
2022-08-27T05:25:05.904Z,473.00
2022-08-27T05:25:35.933Z,473.00
2022-08-27T05:26:05.986Z,474.00
2022-08-27T05:26:36.023Z,474.00
2022-08-27T05:27:06.060Z,473.00
2022-08-27T05:27:36.087Z,474.00
2022-08-27T05:28:06.128Z,472.00
2022-08-27T05:28:36.162Z,472.00
2022-08-27T05:29:06.199Z,472.00
2022-08-27T05:29:36.231Z,472.00
2022-08-27T05:30:06.278Z,472.00
2022-08-27T05:30:36.309Z,471.00
2022-08-27T05:31:06.460Z,471.00
2022-08-27T05:31:36.451Z,472.00
2022-08-27T05:32:06.484Z,473.00
2022-08-27T05:32:36.516Z,475.00
2022-08-27T05:33:06.551Z,474.00
2022-08-27T05:33:36.586Z,472.00
2022-08-27T05:34:10.060Z,471.00
2022-08-27T05:34:36.668Z,470.00
2022-08-27T05:35:06.703Z,470.00
2022-08-27T05:35:36.735Z,470.00
2022-08-27T05:36:06.805Z,470.00
2022-08-27T05:36:36.844Z,469.00
2022-08-27T05:37:06.875Z,469.00
2022-08-27T05:37:36.904Z,470.00
2022-08-27T05:38:06.973Z,469.00
2022-08-27T05:38:37.015Z,468.00
2022-08-27T05:39:07.056Z,467.00
2022-08-27T05:39:37.091Z,467.00
2022-08-27T05:40:07.241Z,467.00
2022-08-27T05:40:37.191Z,468.00
2022-08-27T05:41:07.253Z,468.00
2022-08-27T05:41:37.294Z,467.00
2022-08-27T05:42:07.328Z,466.00
2022-08-27T05:42:37.361Z,466.00
2022-08-27T05:43:07.405Z,464.00
2022-08-27T05:43:37.438Z,462.00
2022-08-27T05:44:23.986Z,463.00
2022-08-27T05:44:41.129Z,463.00
2022-08-27T05:45:07.609Z,463.00
2022-08-27T05:45:37.642Z,464.00
2022-08-27T05:46:07.775Z,464.00
2022-08-27T05:46:37.844Z,465.00
2022-08-27T05:47:07.869Z,465.00
2022-08-27T05:47:44.535Z,464.00
2022-08-27T05:48:08.020Z,464.00
2022-08-27T05:48:37.944Z,465.00
2022-08-27T05:49:07.975Z,467.00
2022-08-27T05:49:38.007Z,467.00
2022-08-27T05:50:08.049Z,466.00
2022-08-27T05:50:38.087Z,466.00
2022-08-27T05:51:08.189Z,466.00
2022-08-27T05:51:38.223Z,466.00
2022-08-27T05:52:08.258Z,467.00
2022-08-27T05:52:38.291Z,468.00
2022-08-27T05:53:08.329Z,467.00
2022-08-27T05:53:38.361Z,466.00
2022-08-27T05:54:09.069Z,467.00
2022-08-27T05:54:38.393Z,469.00
2022-08-27T05:55:08.433Z,468.00
2022-08-27T05:55:38.467Z,465.00
2022-08-27T05:56:08.543Z,466.00
2022-08-27T05:56:38.589Z,466.00
2022-08-27T05:57:08.620Z,467.00
2022-08-27T05:57:38.665Z,467.00
2022-08-27T05:58:08.709Z,465.00
2022-08-27T05:58:38.738Z,465.00
2022-08-27T05:59:08.831Z,466.00
2022-08-27T05:59:38.847Z,465.00
2022-08-27T06:00:08.882Z,465.00
2022-08-27T06:00:38.929Z,464.00
2022-08-27T06:01:10.407Z,465.00
2022-08-27T06:01:39.048Z,465.00
2022-08-27T06:02:09.152Z,466.00
2022-08-27T06:02:39.247Z,466.00
2022-08-27T06:03:09.186Z,467.00
2022-08-27T06:03:39.226Z,468.00
2022-08-27T06:04:09.340Z,468.00
2022-08-27T06:04:39.317Z,469.00
2022-08-27T06:05:09.455Z,469.00
2022-08-27T06:05:39.408Z,469.00
2022-08-27T06:06:09.483Z,469.00
2022-08-27T06:06:39.521Z,470.00
2022-08-27T06:07:09.559Z,469.00
2022-08-27T06:07:39.588Z,472.00
2022-08-27T06:08:09.858Z,471.00
2022-08-27T06:08:39.655Z,471.00
2022-08-27T06:09:09.691Z,471.00
2022-08-27T06:09:39.726Z,472.00
2022-08-27T06:10:09.765Z,471.00
2022-08-27T06:10:39.805Z,470.00
2022-08-27T06:11:09.849Z,467.00
2022-08-27T06:11:39.887Z,466.00
2022-08-27T06:12:09.918Z,467.00
2022-08-27T06:12:39.949Z,467.00
2022-08-27T06:13:09.986Z,468.00
2022-08-27T06:13:40.021Z,467.00
2022-08-27T06:14:10.110Z,468.00
2022-08-27T06:14:40.103Z,468.00